createdAt,value
2019-05-02T00:01:02.743Z,9.40
2019-05-02T00:03:35.959Z,9.40
2019-05-02T00:06:07.558Z,9.40
2019-05-02T00:08:34.346Z,9.30
2019-05-02T00:11:03.465Z,9.30
2019-05-02T00:13:32.277Z,9.30
2019-05-02T00:16:00.779Z,9.40
2019-05-02T00:18:32.066Z,9.30
2019-05-02T00:21:01.381Z,9.40
2019-05-02T00:23:30.181Z,9.40
2019-05-02T00:25:58.667Z,9.40
2019-05-02T00:28:27.095Z,9.30
2019-05-02T00:30:55.617Z,9.40
2019-05-02T00:33:24.142Z,9.40
2019-05-02T00:35:52.591Z,9.40
2019-05-02T00:38:21.039Z,9.40
2019-05-02T00:40:49.480Z,9.40
2019-05-02T00:43:17.923Z,9.40
2019-05-02T00:45:46.414Z,9.40
2019-05-02T00:48:33.076Z,9.40
2019-05-02T00:51:01.567Z,9.40
2019-05-02T00:53:30.014Z,9.40
2019-05-02T00:55:58.461Z,9.40
2019-05-02T00:58:27.263Z,9.30
2019-05-02T01:01:15.024Z,9.30
2019-05-02T01:03:47.283Z,9.40
2019-05-02T01:06:15.594Z,9.40
2019-05-02T01:08:44.361Z,9.50
2019-05-02T01:11:12.830Z,9.40
2019-05-02T01:13:41.334Z,9.40
2019-05-02T01:16:09.775Z,9.40
2019-05-02T01:18:41.395Z,9.40
2019-05-02T01:21:08.470Z,9.40
2019-05-02T01:23:37.007Z,9.40
2019-05-02T01:26:05.505Z,9.40
2019-05-02T01:28:54.200Z,9.40
2019-05-02T01:31:32.457Z,9.30
2019-05-02T01:34:18.092Z,9.40
2019-05-02T01:36:55.416Z,9.30
2019-05-02T01:39:23.901Z,9.40
2019-05-02T01:41:52.359Z,9.40
2019-05-02T01:44:20.828Z,9.40
2019-05-02T01:46:49.384Z,9.40
2019-05-02T01:49:21.903Z,9.30
2019-05-02T01:51:49.362Z,9.30
2019-05-02T01:54:17.991Z,9.40
2019-05-02T01:56:46.462Z,9.40
2019-05-02T01:59:15.046Z,9.40
2019-05-02T02:01:43.607Z,9.40
2019-05-02T02:04:16.302Z,9.30
2019-05-02T02:06:43.345Z,9.40
2019-05-02T02:09:12.435Z,9.50
2019-05-02T02:11:41.031Z,9.50
2019-05-02T02:14:12.921Z,9.60
2019-05-02T02:16:40.530Z,9.60
2019-05-02T02:19:10.936Z,9.60
2019-05-02T02:21:43.960Z,9.50
2019-05-02T02:24:14.106Z,9.50
2019-05-02T02:26:47.687Z,9.50
2019-05-02T02:29:12.978Z,9.50
2019-05-02T02:31:46.866Z,9.60
2019-05-02T02:34:11.714Z,9.60
2019-05-02T02:36:40.320Z,9.60
2019-05-02T02:39:14.457Z,9.60
2019-05-02T02:41:39.232Z,9.60
2019-05-02T02:44:12.204Z,9.50
2019-05-02T02:46:45.317Z,9.60
2019-05-02T02:49:21.082Z,9.60
2019-05-02T02:51:44.164Z,9.60
2019-05-02T02:54:12.672Z,9.60
2019-05-02T02:56:42.728Z,9.60
2019-05-02T02:59:11.641Z,9.60
2019-05-02T03:01:40.215Z,9.60
2019-05-02T03:04:11.775Z,9.50
2019-05-02T03:06:44.850Z,9.60
2019-05-02T03:09:09.334Z,9.60
2019-05-02T03:11:45.572Z,9.60
2019-05-02T03:14:18.668Z,9.60
2019-05-02T03:16:49.532Z,9.60
2019-05-02T03:19:21.042Z,9.50
2019-05-02T03:22:00.340Z,9.50
2019-05-02T03:24:25.378Z,9.50
2019-05-02T03:26:55.786Z,9.50
2019-05-02T03:29:25.381Z,9.60
2019-05-02T03:32:11.729Z,9.60
2019-05-02T03:34:24.191Z,9.60
2019-05-02T03:36:52.791Z,9.60
2019-05-02T03:39:21.475Z,9.60
2019-05-02T03:41:55.568Z,9.60
2019-05-02T03:44:25.986Z,9.50
2019-05-02T03:46:54.494Z,9.60
2019-05-02T03:49:20.749Z,9.60
2019-05-02T03:51:49.220Z,9.60
2019-05-02T03:54:19.979Z,9.70
2019-05-02T03:56:51.074Z,9.70
2019-05-02T03:59:18.219Z,9.70
2019-05-02T04:01:46.749Z,9.80
2019-05-02T04:04:20.469Z,9.80
2019-05-02T04:06:46.736Z,9.80
2019-05-02T04:09:39.102Z,9.80
2019-05-02T04:12:04.051Z,9.90
2019-05-02T04:14:37.678Z,9.80
2019-05-02T04:17:03.187Z,9.80
2019-05-02T04:19:34.861Z,9.90
2019-05-02T04:22:08.539Z,9.90
2019-05-02T04:24:33.680Z,9.90
2019-05-02T04:27:02.127Z,9.90
2019-05-02T04:29:32.835Z,9.90
2019-05-02T04:32:04.289Z,9.90
2019-05-02T04:34:31.280Z,9.90
2019-05-02T04:37:03.377Z,9.90
2019-05-02T04:39:29.992Z,9.90
2019-05-02T04:42:04.782Z,9.90
2019-05-02T04:44:39.291Z,9.90
2019-05-02T04:47:09.396Z,10.00
2019-05-02T04:49:35.400Z,9.90
2019-05-02T04:52:06.382Z,10.00
2019-05-02T04:54:32.388Z,9.90
2019-05-02T04:57:02.394Z,9.90
2019-05-02T04:59:32.950Z,10.00
2019-05-02T05:02:01.332Z,10.10
2019-05-02T05:04:33.299Z,10.10
2019-05-02T05:07:01.358Z,10.00
2019-05-02T05:09:29.972Z,10.10
2019-05-02T05:12:02.446Z,10.10
2019-05-02T05:14:31.422Z,10.20
2019-05-02T05:16:58.976Z,10.20
2019-05-02T05:19:30.895Z,10.20
2019-05-02T05:22:04.386Z,10.20
2019-05-02T05:24:32.875Z,10.30
2019-05-02T05:27:02.263Z,10.30
2019-05-02T05:29:30.852Z,10.30
2019-05-02T05:32:05.372Z,10.30
2019-05-02T05:34:32.634Z,10.40
2019-05-02T05:37:03.585Z,10.50
2019-05-02T05:39:30.062Z,10.50
2019-05-02T05:41:58.519Z,10.50
2019-05-02T05:44:30.520Z,10.60
2019-05-02T05:46:58.110Z,10.50
2019-05-02T05:49:28.257Z,10.60
2019-05-02T05:52:02.127Z,10.70
2019-05-02T05:54:28.299Z,10.70
2019-05-02T05:56:57.285Z,10.60
2019-05-02T05:59:32.064Z,10.70
2019-05-02T06:02:05.453Z,10.70
2019-05-02T06:04:33.275Z,10.70
2019-05-02T06:07:03.167Z,10.70
2019-05-02T06:09:32.457Z,10.70
2019-05-02T06:12:01.079Z,10.70
2019-05-02T06:14:29.561Z,10.80
2019-05-02T06:16:58.016Z,10.70
2019-05-02T06:19:26.550Z,10.80
2019-05-02T06:21:55.117Z,11.00
2019-05-02T06:24:23.590Z,11.00
2019-05-02T06:26:52.146Z,11.00
2019-05-02T06:29:21.021Z,11.10
2019-05-02T06:31:49.623Z,11.20
2019-05-02T06:34:18.471Z,11.20
2019-05-02T06:36:46.927Z,11.20
2019-05-02T06:39:15.470Z,11.20
2019-05-02T06:41:43.943Z,11.20
2019-05-02T06:44:12.940Z,11.20
2019-05-02T06:46:41.586Z,11.40
2019-05-02T06:49:10.088Z,11.40
2019-05-02T06:51:38.572Z,11.30
2019-05-02T06:54:07.060Z,11.40
2019-05-02T06:56:35.612Z,11.20
2019-05-02T06:59:04.400Z,11.20
2019-05-02T07:01:36.015Z,11.20
2019-05-02T07:04:04.675Z,11.40
2019-05-02T07:06:42.142Z,11.40
2019-05-02T07:09:04.911Z,11.50
2019-05-02T07:11:38.771Z,11.30
2019-05-02T07:14:13.485Z,11.40
2019-05-02T07:16:41.079Z,11.30
2019-05-02T07:19:16.462Z,11.30
2019-05-02T07:21:44.678Z,11.30
2019-05-02T07:24:13.242Z,11.20
2019-05-02T07:26:41.748Z,11.20
2019-05-02T07:29:10.260Z,11.20
2019-05-02T07:31:43.013Z,11.10
2019-05-02T07:34:12.977Z,11.20
2019-05-02T07:36:39.103Z,11.30
2019-05-02T07:39:09.584Z,11.20
2019-05-02T07:41:38.142Z,11.10
2019-05-02T07:44:06.699Z,11.10
2019-05-02T07:46:35.191Z,11.20
2019-05-02T07:49:04.583Z,11.10
2019-05-02T07:51:33.074Z,11.10
2019-05-02T07:54:01.547Z,11.30
2019-05-02T07:56:30.072Z,11.40
2019-05-02T07:58:58.525Z,11.60
2019-05-02T08:01:26.979Z,11.80
2019-05-02T08:03:55.438Z,12.00
2019-05-02T08:06:34.696Z,12.20
2019-05-02T08:08:54.072Z,12.40
2019-05-02T08:11:22.519Z,12.50
2019-05-02T08:13:55.644Z,12.60
2019-05-02T08:16:22.438Z,12.50
2019-05-02T08:18:51.385Z,12.40
2019-05-02T08:21:19.903Z,12.30
2019-05-02T08:23:48.391Z,12.30
2019-05-02T08:26:21.615Z,12.40
2019-05-02T08:28:52.025Z,12.30
2019-05-02T08:31:20.853Z,12.20
2019-05-02T08:33:49.075Z,12.10
2019-05-02T08:36:17.527Z,12.20
2019-05-02T08:38:48.918Z,12.30
2019-05-02T08:41:19.988Z,12.30
2019-05-02T08:43:46.446Z,12.30
2019-05-02T08:46:15.991Z,12.50
2019-05-02T08:48:44.697Z,12.60
2019-05-02T08:51:13.141Z,12.50
2019-05-02T08:53:41.591Z,12.30
2019-05-02T08:56:10.059Z,12.30
2019-05-02T08:58:38.566Z,12.20
2019-05-02T09:01:09.260Z,12.10
2019-05-02T09:03:54.759Z,11.90
2019-05-02T09:06:07.496Z,11.80
2019-05-02T09:08:35.999Z,12.00
2019-05-02T09:11:04.511Z,12.20
2019-05-02T09:13:33.137Z,12.30
2019-05-02T09:16:05.262Z,12.30
2019-05-02T09:18:38.768Z,12.50
2019-05-02T09:21:02.129Z,12.50
2019-05-02T09:23:33.115Z,12.40
2019-05-02T09:26:02.613Z,12.40
2019-05-02T09:28:32.115Z,12.50
2019-05-02T09:31:05.050Z,12.50
2019-05-02T09:33:32.175Z,12.40
2019-05-02T09:36:02.413Z,12.40
2019-05-02T09:38:32.859Z,12.00
2019-05-02T09:41:15.735Z,11.90
2019-05-02T09:43:37.421Z,11.80
2019-05-02T09:46:02.587Z,11.80
2019-05-02T09:48:31.892Z,11.90
2019-05-02T09:51:04.580Z,11.90
2019-05-02T09:53:32.412Z,11.80
2019-05-02T09:56:02.179Z,11.80
2019-05-02T09:58:32.063Z,11.80
2019-05-02T10:01:02.453Z,11.80
2019-05-02T10:03:31.967Z,11.70
2019-05-02T10:06:02.911Z,11.80
2019-05-02T10:08:32.136Z,11.80
2019-05-02T10:11:02.806Z,11.90
2019-05-02T10:13:32.802Z,11.80
2019-05-02T10:16:02.095Z,11.80
2019-05-02T10:18:33.009Z,11.90
2019-05-02T10:21:03.003Z,11.90
2019-05-02T10:23:32.187Z,11.80
2019-05-02T10:26:02.719Z,11.70
2019-05-02T10:28:31.727Z,11.70
2019-05-02T10:31:02.132Z,11.70
2019-05-02T10:33:33.557Z,11.70
2019-05-02T10:36:02.715Z,11.70
2019-05-02T10:38:32.578Z,11.80
2019-05-02T10:41:02.693Z,11.90
2019-05-02T10:43:32.922Z,11.90
2019-05-02T10:46:03.313Z,11.80
2019-05-02T10:48:33.237Z,11.80
2019-05-02T10:51:18.526Z,11.80
2019-05-02T10:53:51.597Z,11.70
2019-05-02T10:56:17.184Z,11.90
2019-05-02T10:58:45.742Z,12.10
2019-05-02T11:01:14.872Z,12.30
2019-05-02T11:03:47.434Z,12.40
2019-05-02T11:06:15.220Z,12.40
2019-05-02T11:08:46.005Z,12.70
2019-05-02T11:11:14.240Z,13.10
2019-05-02T11:14:05.587Z,13.30
2019-05-02T11:16:34.282Z,13.20
2019-05-02T11:19:04.364Z,13.00
2019-05-02T11:21:32.836Z,12.70
2019-05-02T11:24:02.417Z,12.70
2019-05-02T11:26:32.398Z,12.70
2019-05-02T11:29:03.064Z,12.50
2019-05-02T11:31:32.496Z,12.60
2019-05-02T11:34:01.798Z,12.70
2019-05-02T11:36:32.576Z,12.80
2019-05-02T11:39:11.982Z,12.80
2019-05-02T11:41:31.815Z,12.60
2019-05-02T11:44:02.756Z,12.50
2019-05-02T11:46:32.857Z,12.40
2019-05-02T11:49:02.403Z,12.40
2019-05-02T11:51:32.633Z,12.40
2019-05-02T11:54:07.618Z,12.30
2019-05-02T11:56:32.940Z,12.30
2019-05-02T11:59:02.907Z,12.20
2019-05-02T12:01:37.097Z,12.20
2019-05-02T12:04:03.033Z,12.20
2019-05-02T12:06:33.200Z,12.20
2019-05-02T12:09:03.826Z,12.20
2019-05-02T12:11:32.492Z,12.40
2019-05-02T12:14:01.714Z,12.30
2019-05-02T12:16:32.125Z,12.20
2019-05-02T12:19:09.465Z,12.20
2019-05-02T12:21:32.512Z,12.20
2019-05-02T12:24:02.237Z,12.30
2019-05-02T12:26:32.364Z,12.30
2019-05-02T12:29:02.638Z,12.20
2019-05-02T12:31:32.449Z,12.10
2019-05-02T12:34:02.842Z,11.90
2019-05-02T12:36:33.328Z,12.00
2019-05-02T12:39:02.431Z,12.00
2019-05-02T12:41:33.016Z,11.90
2019-05-02T12:44:02.268Z,11.90
2019-05-02T12:46:31.748Z,11.90
2019-05-02T12:49:02.578Z,12.10
2019-05-02T12:51:32.018Z,12.00
2019-05-02T12:54:02.276Z,12.10
2019-05-02T12:56:32.367Z,11.90
2019-05-02T12:59:02.324Z,11.80
2019-05-02T13:01:32.920Z,11.80
2019-05-02T13:04:03.307Z,11.80
2019-05-02T13:06:32.776Z,11.70
2019-05-02T13:09:03.061Z,11.60
2019-05-02T13:11:45.699Z,11.60
2019-05-02T13:14:18.891Z,11.60
2019-05-02T13:16:43.122Z,11.70
2019-05-02T13:19:12.025Z,11.70
2019-05-02T13:21:58.254Z,11.70
2019-05-02T13:24:29.430Z,11.60
2019-05-02T13:26:59.410Z,11.50
2019-05-02T13:29:26.578Z,11.50
2019-05-02T13:31:56.766Z,11.50
2019-05-02T13:34:43.265Z,11.60
2019-05-02T13:37:12.186Z,11.60
2019-05-02T13:39:45.393Z,11.50
2019-05-02T13:42:14.432Z,11.50
2019-05-02T13:44:44.531Z,11.60
2019-05-02T13:47:14.959Z,11.70
2019-05-02T13:49:53.662Z,11.70
2019-05-02T13:52:13.675Z,11.70
2019-05-02T13:54:42.655Z,11.80
2019-05-02T13:57:12.109Z,11.80
2019-05-02T13:59:41.649Z,11.90
2019-05-02T14:02:31.781Z,12.00
2019-05-02T14:05:02.333Z,12.00
2019-05-02T14:07:32.618Z,12.10
2019-05-02T14:10:02.789Z,12.10
2019-05-02T14:12:35.616Z,12.00
2019-05-02T14:15:05.497Z,12.00
2019-05-02T14:17:33.996Z,11.90
2019-05-02T14:20:10.731Z,11.90
2019-05-02T14:22:32.689Z,11.80
2019-05-02T14:25:01.897Z,11.80
2019-05-02T14:27:32.078Z,11.70
2019-05-02T14:30:02.464Z,11.70
2019-05-02T14:32:32.727Z,11.80
2019-05-02T14:35:02.782Z,11.90
2019-05-02T14:37:32.076Z,12.20
2019-05-02T14:40:02.449Z,12.40
2019-05-02T14:42:32.266Z,12.40
2019-05-02T14:45:08.921Z,12.40
2019-05-02T14:47:32.601Z,12.50
2019-05-02T14:50:05.001Z,12.60
2019-05-02T14:52:32.692Z,12.60
2019-05-02T14:55:02.960Z,12.60
2019-05-02T14:57:32.647Z,12.50
2019-05-02T15:00:03.283Z,12.40
2019-05-02T15:02:44.941Z,12.30
2019-05-02T15:05:18.827Z,12.00
2019-05-02T15:07:44.786Z,12.00
2019-05-02T15:10:13.891Z,12.00
2019-05-02T15:12:42.352Z,12.10
2019-05-02T15:15:12.249Z,12.00
2019-05-02T15:17:42.021Z,12.00
2019-05-02T15:20:13.017Z,12.00
2019-05-02T15:22:42.504Z,12.10
2019-05-02T15:25:13.626Z,12.10
2019-05-02T15:27:44.604Z,12.20
2019-05-02T15:30:13.171Z,12.20
2019-05-02T15:32:49.295Z,12.20
2019-05-02T15:35:35.900Z,12.20
2019-05-02T15:38:06.679Z,12.10
2019-05-02T15:40:43.502Z,12.00
2019-05-02T15:43:09.190Z,11.90
2019-05-02T15:45:36.850Z,11.80
2019-05-02T15:48:05.516Z,11.80
2019-05-02T15:50:49.501Z,11.60
2019-05-02T15:53:14.428Z,11.40
2019-05-02T15:55:43.999Z,11.10
2019-05-02T15:58:17.002Z,11.00
2019-05-02T16:00:48.042Z,10.90
2019-05-02T16:03:16.487Z,10.80
2019-05-02T16:05:45.280Z,10.80
2019-05-02T16:08:13.886Z,10.70
2019-05-02T16:10:43.480Z,10.60
2019-05-02T16:13:17.009Z,10.60
2019-05-02T16:15:43.192Z,10.70
2019-05-02T16:18:12.720Z,10.60
2019-05-02T16:20:47.263Z,10.50
2019-05-02T16:23:13.265Z,10.40
2019-05-02T16:25:42.901Z,10.40
2019-05-02T16:28:21.230Z,10.40
2019-05-02T16:30:52.591Z,10.40
2019-05-02T16:33:21.228Z,10.30
2019-05-02T16:35:51.520Z,10.40
2019-05-02T16:38:22.107Z,10.40
2019-05-02T16:40:52.665Z,10.40
2019-05-02T16:43:22.270Z,10.50
2019-05-02T16:45:52.579Z,10.40
2019-05-02T16:48:22.186Z,10.50
2019-05-02T16:50:51.403Z,10.40
2019-05-02T16:53:22.691Z,10.50
2019-05-02T16:55:50.997Z,10.50
2019-05-02T16:58:19.511Z,10.60
2019-05-02T17:00:48.034Z,10.50
2019-05-02T17:03:17.416Z,10.40
2019-05-02T17:05:49.462Z,10.40
2019-05-02T17:08:22.565Z,10.40
2019-05-02T17:10:56.717Z,10.30
2019-05-02T17:13:27.443Z,10.30
2019-05-02T17:15:53.322Z,10.30
2019-05-02T17:18:22.847Z,10.30
2019-05-02T17:20:55.578Z,10.30
2019-05-02T17:23:22.269Z,10.20
2019-05-02T17:25:52.169Z,10.20
2019-05-02T17:28:22.296Z,10.20
2019-05-02T17:30:52.448Z,10.20
2019-05-02T17:33:21.738Z,10.20
2019-05-02T17:35:53.609Z,10.20
2019-05-02T17:38:27.328Z,10.10
2019-05-02T17:40:54.154Z,10.00
2019-05-02T17:43:22.715Z,10.10
2019-05-02T17:45:51.264Z,10.10
2019-05-02T17:48:19.780Z,10.00
2019-05-02T17:51:06.607Z,9.90
2019-05-02T17:53:41.474Z,10.00
2019-05-02T17:56:05.333Z,10.00
2019-05-02T17:58:33.758Z,9.90
2019-05-02T18:01:03.866Z,9.80
2019-05-02T18:03:35.191Z,9.80
2019-05-02T18:06:02.812Z,9.70
2019-05-02T18:08:32.931Z,9.70
2019-05-02T18:11:02.958Z,9.70
2019-05-02T18:13:33.971Z,9.70
2019-05-02T18:16:02.809Z,9.80
2019-05-02T18:18:31.950Z,9.70
2019-05-02T18:21:02.093Z,9.70
2019-05-02T18:23:33.481Z,9.70
2019-05-02T18:26:05.023Z,9.70
2019-05-02T18:28:32.161Z,9.60
2019-05-02T18:31:04.489Z,9.60
2019-05-02T18:33:31.000Z,9.50
2019-05-02T18:35:59.541Z,9.50
2019-05-02T18:38:28.054Z,9.50
2019-05-02T18:41:00.428Z,9.50
2019-05-02T18:43:27.017Z,9.50
2019-05-02T18:45:58.190Z,9.50
2019-05-02T18:48:25.776Z,9.50
2019-05-02T18:50:54.355Z,9.40
2019-05-02T18:53:24.288Z,9.30
2019-05-02T18:55:56.706Z,9.20
2019-05-02T18:58:23.363Z,9.10
2019-05-02T19:00:52.087Z,9.00
2019-05-02T19:03:20.581Z,8.90
2019-05-02T19:05:56.406Z,8.80
2019-05-02T19:08:30.767Z,8.80
2019-05-02T19:11:04.112Z,8.70
2019-05-02T19:13:19.639Z,8.60
2019-05-02T19:15:49.022Z,8.50
2019-05-02T19:18:18.404Z,8.50
2019-05-02T19:20:57.421Z,8.50
2019-05-02T19:23:24.412Z,8.50
2019-05-02T19:25:53.010Z,8.60
2019-05-02T19:28:33.656Z,8.60
2019-05-02T19:31:06.937Z,8.60
2019-05-02T19:33:37.492Z,8.60
2019-05-02T19:36:05.320Z,8.50
2019-05-02T19:38:34.878Z,8.40
2019-05-02T19:41:08.759Z,8.30
2019-05-02T19:43:34.963Z,8.20
2019-05-02T19:46:04.022Z,8.10
2019-05-02T19:48:36.874Z,8.00
2019-05-02T19:51:02.664Z,8.00
2019-05-02T19:53:32.400Z,7.90
2019-05-02T19:56:02.977Z,8.00
2019-05-02T19:58:36.649Z,8.00
2019-05-02T20:01:03.485Z,8.00
2019-05-02T20:03:32.466Z,8.10
2019-05-02T20:06:02.335Z,8.10
2019-05-02T20:08:32.543Z,8.20
2019-05-02T20:11:02.099Z,8.20
2019-05-02T20:13:32.678Z,8.20
2019-05-02T20:16:05.792Z,8.10
2019-05-02T20:18:34.936Z,7.90
2019-05-02T20:21:27.222Z,7.80
2019-05-02T20:23:50.373Z,7.70
2019-05-02T20:26:18.916Z,7.60
2019-05-02T20:28:47.427Z,7.60
2019-05-02T20:31:15.863Z,7.50
2019-05-02T20:33:44.311Z,7.50
2019-05-02T20:36:12.791Z,7.40
2019-05-02T20:38:41.751Z,7.40
2019-05-02T20:41:12.555Z,7.30
2019-05-02T20:43:44.281Z,7.20
2019-05-02T20:49:12.642Z,7.10
2019-05-02T20:51:42.304Z,7.20
2019-05-02T20:54:12.548Z,7.10
2019-05-02T20:56:42.633Z,7.10
2019-05-02T20:59:12.777Z,7.00
2019-05-02T21:01:42.949Z,6.90
2019-05-02T21:04:12.088Z,6.90
2019-05-02T21:07:02.019Z,6.80
2019-05-02T21:09:47.403Z,6.80
2019-05-02T21:12:15.919Z,6.80
2019-05-02T21:14:44.976Z,6.70
2019-05-02T21:17:13.471Z,6.60
2019-05-02T21:19:41.954Z,6.50
2019-05-02T21:22:13.464Z,6.40
2019-05-02T21:24:42.282Z,6.40
2019-05-02T21:27:10.775Z,6.40
2019-05-02T21:29:39.272Z,6.40
2019-05-02T21:32:08.010Z,6.40
2019-05-02T21:34:36.439Z,6.40
2019-05-02T21:37:04.968Z,6.40
2019-05-02T21:39:33.492Z,6.30
2019-05-02T21:42:02.401Z,6.30
2019-05-02T21:44:31.592Z,6.30
2019-05-02T21:47:00.254Z,6.20
2019-05-02T21:49:45.741Z,6.20
2019-05-02T21:52:22.663Z,6.20
2019-05-02T21:55:02.248Z,6.20
2019-05-02T21:57:32.246Z,6.10
2019-05-02T22:00:02.513Z,6.00
2019-05-02T22:02:31.272Z,6.00
2019-05-02T22:04:59.726Z,6.00
2019-05-02T22:07:28.174Z,6.00
2019-05-02T22:09:56.710Z,5.90
2019-05-02T22:12:25.338Z,5.90
2019-05-02T22:14:53.798Z,5.90
2019-05-02T22:17:22.362Z,5.90
2019-05-02T22:19:52.487Z,5.80
2019-05-02T22:22:22.805Z,5.80
2019-05-02T22:24:52.819Z,5.80
2019-05-02T22:27:21.818Z,5.80
2019-05-02T22:29:52.365Z,5.80
2019-05-02T22:32:22.518Z,5.80
2019-05-02T22:34:53.457Z,5.70
2019-05-02T22:37:22.598Z,5.70
2019-05-02T22:39:58.419Z,5.70
2019-05-02T22:42:26.878Z,5.70
2019-05-02T22:44:55.314Z,5.70
2019-05-02T22:47:23.841Z,5.70
2019-05-02T22:49:52.275Z,5.70
2019-05-02T22:52:21.784Z,5.70
2019-05-02T22:54:52.239Z,5.70
2019-05-02T22:57:22.535Z,5.80
2019-05-02T22:59:51.650Z,5.70
2019-05-02T23:02:21.935Z,5.80
2019-05-02T23:04:52.521Z,5.80
2019-05-02T23:07:22.198Z,5.70
2019-05-02T23:09:52.666Z,5.70
2019-05-02T23:12:22.560Z,5.60
2019-05-02T23:14:52.334Z,5.60
2019-05-02T23:17:23.011Z,5.50
2019-05-02T23:19:52.742Z,5.60
2019-05-02T23:22:21.797Z,5.60
2019-05-02T23:25:08.367Z,5.60
2019-05-02T23:27:38.455Z,5.60
2019-05-02T23:30:11.545Z,5.60
2019-05-02T23:32:39.986Z,5.60
2019-05-02T23:35:08.607Z,5.50
2019-05-02T23:37:37.056Z,5.50
2019-05-02T23:40:06.535Z,5.40
2019-05-02T23:42:34.988Z,5.40
2019-05-02T23:45:04.980Z,5.40
2019-05-02T23:47:33.470Z,5.20
2019-05-02T23:50:02.827Z,5.20
2019-05-02T23:52:31.668Z,5.20
2019-05-02T23:55:00.252Z,5.20
2019-05-02T23:57:28.726Z,5.20
2019-05-02T23:59:57.167Z,5.10
